Time;durP1;ratioP1;P1;durP2;ratioP2;P2;SDS_P1;SDS_P2;PMS_P1;PMS_P2;Temp;Humidity;BMP_temperature;BMP_pressure;BME280_temperature;BME280_humidity;BME280_pressure;Samples;Min_cycle;Max_cycle;Signal;HPM_P1;HPM_P2
2022/04/20 00:01:31;;;;;;;16.50;9.35;;;;;;;5.77;66.51;96005.06;5047227;28;20507;-73
2022/04/20 00:03:58;;;;;;;15.68;9.45;;;;;;;5.74;66.84;95994.84;5048362;28;20052;-73
2022/04/20 00:06:25;;;;;;;12.65;8.82;;;;;;;5.73;66.77;95995.94;5047207;28;20060;-73
2022/04/20 00:08:51;;;;;;;15.95;9.15;;;;;;;5.72;67.17;96002.47;5048313;28;20048;-73
2022/04/20 00:11:18;;;;;;;14.27;9.35;;;;;;;5.66;66.92;96000.94;5047081;28;20620;-73
2022/04/20 00:13:46;;;;;;;15.00;8.75;;;;;;;5.66;67.12;95996.34;5047811;28;20061;-73
2022/04/20 00:16:12;;;;;;;15.82;10.10;;;;;;;5.67;66.87;95997.13;5047520;28;20045;-73
2022/04/20 00:18:39;;;;;;;18.63;10.13;;;;;;;5.65;66.88;95994.75;5047395;28;20052;-73
2022/04/20 00:21:05;;;;;;;15.45;9.07;;;;;;;5.62;67.37;96002.63;5047570;28;20052;-73
2022/04/20 00:23:31;;;;;;;17.55;10.85;;;;;;;5.55;67.37;96005.69;5047151;28;20060;-73
2022/04/20 00:25:58;;;;;;;14.40;9.82;;;;;;;5.52;67.40;96000.06;5047766;28;20068;-73
2022/04/20 00:28:24;;;;;;;13.98;9.93;;;;;;;5.44;67.33;95986.16;5047097;28;20053;-73
2022/04/20 00:30:52;;;;;;;17.70;11.18;;;;;;;5.35;67.37;95987.91;5047860;28;20053;-72
2022/04/20 00:33:19;;;;;;;16.83;10.30;;;;;;;5.31;67.50;95992.28;5046446;28;20056;-73
2022/04/20 00:35:45;;;;;;;17.52;11.02;;;;;;;5.24;67.68;95997.25;5047631;28;20071;-73
2022/04/20 00:38:12;;;;;;;17.30;11.05;;;;;;;5.19;67.78;95989.25;5046923;28;20376;-74
2022/04/20 00:40:39;;;;;;;18.92;12.20;;;;;;;5.11;67.97;95982.59;5047273;28;20060;-73
2022/04/20 00:43:06;;;;;;;15.52;10.55;;;;;;;5.09;68.23;95981.28;5046917;28;20071;-73
2022/04/20 00:45:34;;;;;;;21.90;13.20;;;;;;;5.06;68.37;95985.34;5046815;28;20048;-73
2022/04/20 00:48:04;;;;;;;18.55;12.57;;;;;;;5.04;68.29;95986.75;5047721;28;20062;-73
2022/04/20 00:50:31;;;;;;;23.98;13.77;;;;;;;5.02;68.57;95995.16;5046209;28;20060;-73
2022/04/20 00:52:57;;;;;;;19.73;12.40;;;;;;;5.00;68.60;95985.72;5047458;28;20060;-73
2022/04/20 00:55:24;;;;;;;19.52;12.38;;;;;;;4.97;68.85;95982.53;5046248;28;20515;-73
2022/04/20 00:57:50;;;;;;;22.33;13.95;;;;;;;4.98;68.94;95994.91;5047221;28;20052;-73
2022/04/20 01:00:17;;;;;;;21.88;13.43;;;;;;;4.97;69.15;95992.53;5045860;28;20052;-73
2022/04/20 01:02:43;;;;;;;20.67;12.48;;;;;;;4.97;69.19;95993.31;5045667;28;20045;-73
2022/04/20 01:05:13;;;;;;;20.45;13.52;;;;;;;4.97;69.11;95987.13;5046149;28;20052;-73
2022/04/20 01:07:41;;;;;;;22.65;14.35;;;;;;;4.96;69.25;95983.63;5045817;28;20052;-73
2022/04/20 01:10:08;;;;;;;23.80;14.43;;;;;;;4.92;69.34;95988.00;5046179;28;20110;-73
2022/04/20 01:12:35;;;;;;;20.38;14.30;;;;;;;4.86;69.30;95986.47;5045275;28;20082;-73
2022/04/20 01:15:02;;;;;;;25.00;15.60;;;;;;;4.87;69.37;95988.06;5046608;28;20045;-73
2022/04/20 01:17:28;;;;;;;23.00;14.88;;;;;;;4.84;69.46;95977.84;5045621;28;20079;-73
2022/04/20 01:19:55;;;;;;;25.55;15.30;;;;;;;4.81;69.49;95983.81;5046473;28;20060;-73
2022/04/20 01:22:23;;;;;;;22.25;14.52;;;;;;;4.71;69.83;95967.78;5044990;28;20071;-73
2022/04/20 01:24:49;;;;;;;23.38;14.88;;;;;;;4.67;70.06;95972.13;5046126;28;20066;-73
2022/04/20 01:27:16;;;;;;;23.58;15.57;;;;;;;4.59;70.41;95975.47;5045429;28;20431;-73
2022/04/20 01:29:43;;;;;;;27.00;16.00;;;;;;;4.54;70.53;95978.22;5045457;28;20056;-73
2022/04/20 01:32:09;;;;;;;22.92;15.60;;;;;;;4.52;70.70;95967.72;5045686;28;20052;-73
2022/04/20 01:34:36;;;;;;;28.63;16.65;;;;;;;4.52;70.67;95969.63;5044992;28;20056;-73
2022/04/20 01:37:03;;;;;;;24.45;15.57;;;;;;;4.51;71.04;95976.91;5045852;28;20107;-73
2022/04/20 01:39:30;;;;;;;22.80;15.43;;;;;;;4.52;71.03;95965.03;5045809;28;20056;-73
2022/04/20 01:41:57;;;;;;;26.02;15.93;;;;;;;4.56;70.94;95970.66;5046391;28;20049;-73
2022/04/20 01:44:23;;;;;;;22.60;14.68;;;;;;;4.59;70.68;95975.47;5045087;28;20052;-73
2022/04/20 01:46:50;;;;;;;24.42;16.58;;;;;;;4.62;70.39;95974.91;5046459;28;20471;-73
2022/04/20 01:49:16;;;;;;;24.38;15.57;;;;;;;4.62;70.84;95969.50;5045275;28;20071;-72
2022/04/20 01:51:50;;;;;;;22.50;14.98;;;;;;;4.60;71.14;95967.09;5045714;28;20509;-73
2022/04/20 01:54:18;;;;;;;20.15;13.95;;;;;;;4.62;70.90;95969.50;5045688;28;20049;-73
2022/04/20 01:56:46;;;;;;;22.33;13.65;;;;;;;4.63;70.71;95960.31;5045837;28;20156;-73
2022/04/20 01:59:13;;;;;;;24.63;14.93;;;;;;;4.63;70.47;95957.63;5045939;28;20045;-73
2022/04/20 02:04:23;;;;;;;23.70;14.43;;;;;;;4.57;70.00;95961.47;5045984;28;20056;-73
2022/04/20 02:06:50;;;;;;;20.77;13.32;;;;;;;4.51;69.58;95963.44;5045879;28;20049;-72
2022/04/20 02:09:16;;;;;;;23.02;13.13;;;;;;;4.54;69.72;95956.66;5045140;28;20056;-73
2022/04/20 02:11:43;;;;;;;20.92;13.02;;;;;;;4.55;69.24;95966.38;5045463;28;20052;-73
2022/04/20 02:14:11;;;;;;;19.40;12.07;;;;;;;4.53;68.94;95960.44;5044463;28;20055;-73
2022/04/20 02:16:37;;;;;;;18.88;11.05;;;;;;;4.45;68.70;95965.41;5045935;28;20049;-72
2022/04/20 02:19:04;;;;;;;18.95;12.40;;;;;;;4.44;68.63;95971.88;5044614;28;20303;-72
2022/04/20 02:21:31;;;;;;;19.05;12.10;;;;;;;4.41;68.57;95975.16;5045941;28;20037;-73
2022/04/20 02:23:57;;;;;;;18.65;11.88;;;;;;;4.39;68.43;95971.94;5044840;28;20041;-73
2022/04/20 02:26:24;;;;;;;18.23;11.50;;;;;;;4.43;68.16;95972.94;5045943;28;20051;-73
2022/04/20 02:28:50;;;;;;;17.77;11.32;;;;;;;4.34;67.79;95972.00;5044906;28;20053;-73
2022/04/20 02:31:18;;;;;;;19.73;11.57;;;;;;;4.32;67.70;95974.16;5044914;28;20063;-73
2022/04/20 02:33:45;;;;;;;18.05;11.20;;;;;;;4.30;67.68;95975.56;5045377;28;20060;-73
2022/04/20 02:36:11;;;;;;;19.55;12.30;;;;;;;4.30;67.64;95970.97;5044899;28;20060;-73
2022/04/20 02:38:39;;;;;;;17.73;11.35;;;;;;;4.28;67.68;95973.16;5045634;28;20542;-73
2022/04/20 02:41:06;;;;;;;21.55;12.55;;;;;;;4.25;67.34;95967.53;5044447;28;20055;-73
2022/04/20 02:43:33;;;;;;;19.42;11.90;;;;;;;4.22;67.37;95971.56;5046012;28;20272;-73
2022/04/20 02:45:59;;;;;;;18.80;11.30;;;;;;;4.20;67.88;95963.00;5044844;28;20053;-73
2022/04/20 02:48:27;;;;;;;16.92;11.02;;;;;;;4.17;67.96;95974.31;5045062;28;20045;-73
2022/04/20 02:50:54;;;;;;;19.80;11.27;;;;;;;4.16;67.75;95967.34;5044590;28;20084;-73
2022/04/20 02:53:20;;;;;;;20.05;11.60;;;;;;;4.14;67.77;95969.53;5045207;28;20053;-73
2022/04/20 02:55:47;;;;;;;19.25;11.32;;;;;;;4.14;67.77;95958.75;5045096;28;20049;-73
2022/04/20 02:58:13;;;;;;;19.08;11.05;;;;;;;4.15;68.04;95954.97;5045119;28;20044;-72
2022/04/20 03:00:40;;;;;;;18.58;10.65;;;;;;;4.12;68.28;95961.75;5045220;28;20129;-73
2022/04/20 03:03:07;;;;;;;18.27;10.23;;;;;;;4.06;68.10;95962.06;5044274;28;20049;-73
2022/04/20 03:05:35;;;;;;;20.02;11.25;;;;;;;3.99;67.83;95957.03;5045281;28;20136;-73
2022/04/20 03:08:01;;;;;;;21.17;11.20;;;;;;;3.99;68.17;95953.53;5044716;28;20048;-73
2022/04/20 03:10:27;;;;;;;17.85;10.57;;;;;;;4.00;68.34;95965.91;5044931;28;20048;-72
2022/04/20 03:12:54;;;;;;;18.83;10.65;;;;;;;3.97;68.26;95963.75;5044153;28;20108;-72
2022/04/20 03:15:20;;;;;;;19.38;10.38;;;;;;;3.90;68.31;95967.59;5045175;28;20053;-73
2022/04/20 03:17:47;;;;;;;20.08;11.60;;;;;;;3.86;68.22;95963.91;5044608;28;20049;-73
2022/04/20 03:20:13;;;;;;;19.25;10.60;;;;;;;3.79;68.46;95963.41;5044821;28;20049;-73
2022/04/20 03:22:41;;;;;;;18.25;10.48;;;;;;;3.79;68.66;95963.41;5045043;28;20049;-73
2022/04/20 03:25:08;;;;;;;18.67;10.73;;;;;;;3.77;68.91;95968.28;5045585;28;20084;-73
2022/04/20 03:27:35;;;;;;;17.80;10.57;;;;;;;3.79;69.02;95970.69;5049038;28;20052;-73
2022/04/20 03:30:01;;;;;;;22.70;11.30;;;;;;;3.73;69.06;95969.94;5048367;28;20559;-73
2022/04/20 03:32:28;;;;;;;23.15;10.75;;;;;;;3.73;69.03;95975.31;5048845;28;20605;-72
2022/04/20 03:34:55;;;;;;;19.05;11.40;;;;;;;3.69;69.05;95970.78;5047923;28;20075;-72
2022/04/20 03:37:21;;;;;;;17.95;10.82;;;;;;;3.61;69.21;95967.63;5048581;28;20500;-73
2022/04/20 03:39:49;;;;;;;31.92;15.02;;;;;;;3.66;69.08;95974.84;5043383;28;20060;-72
2022/04/20 03:42:16;;;;;;;21.88;11.38;;;;;;;3.63;69.41;95978.09;5046751;28;20056;-73
2022/04/20 03:44:42;;;;;;;28.80;14.80;;;;;;;3.61;69.76;95962.25;5047166;28;20049;-73
2022/04/20 03:47:09;;;;;;;23.52;12.23;;;;;;;3.61;70.16;95967.63;5033803;28;20519;-73
2022/04/20 03:49:36;;;;;;;20.10;10.70;;;;;;;3.66;69.92;95964.09;5048709;28;20128;-72
2022/04/20 03:52:02;;;;;;;21.98;12.15;;;;;;;3.66;69.77;95961.38;5046759;28;20057;-73
2022/04/20 03:54:29;;;;;;;18.10;10.80;;;;;;;3.69;69.54;95962.69;5048241;28;20048;-72
2022/04/20 03:57:07;;;;;;;19.92;12.40;;;;;;;3.71;69.79;95965.91;5047496;28;20048;-75
2022/04/20 03:59:35;;;;;;;18.65;10.75;;;;;;;3.71;70.03;95961.34;5048387;28;20037;-73
2022/04/20 04:02:03;;;;;;;20.90;12.30;;;;;;;3.71;70.21;95965.91;5046681;28;20052;-74
2022/04/20 04:04:29;;;;;;;19.38;12.00;;;;;;;3.73;70.22;95959.16;5048360;28;20132;-72
2022/04/20 04:06:56;;;;;;;19.20;11.27;;;;;;;3.75;70.15;95962.38;5048066;28;20057;-73
2022/04/20 04:09:23;;;;;;;22.55;11.73;;;;;;;3.75;70.12;95969.63;5047460;28;20079;-73
2022/04/20 04:11:50;;;;;;;20.65;11.55;;;;;;;3.73;69.64;95975.31;5047803;28;20057;-73
2022/04/20 04:14:18;;;;;;;24.08;12.75;;;;;;;3.72;69.72;95962.94;5046950;28;20208;-73
2022/04/20 04:16:45;;;;;;;20.05;12.00;;;;;;;3.67;69.87;95961.09;5038486;28;20054;-73
2022/04/20 04:19:12;;;;;;;23.00;11.98;;;;;;;3.65;69.89;95959.75;5026776;28;20060;-72
2022/04/20 04:21:39;;;;;;;25.83;12.60;;;;;;;3.58;69.95;95967.38;5028090;28;20140;-73
2022/04/20 04:24:07;;;;;;;20.58;12.80;;;;;;;3.57;70.02;95965.78;5026861;28;20137;-73
2022/04/20 04:26:34;;;;;;;24.45;12.23;;;;;;;3.57;70.16;95963.88;5027988;28;20137;-73
2022/04/20 04:29:00;;;;;;;22.27;13.05;;;;;;;3.56;70.16;95964.16;5027506;28;20065;-73
2022/04/20 04:31:28;;;;;;;24.08;12.93;;;;;;;3.58;70.30;95962.00;5027381;28;20045;-72
2022/04/20 04:33:55;;;;;;;20.92;12.70;;;;;;;3.59;70.51;95959.00;5027569;28;20535;-73
2022/04/20 04:36:21;;;;;;;29.40;13.10;;;;;;;3.61;70.73;95956.84;5026567;28;20090;-72
2022/04/20 04:38:48;;;;;;;21.20;12.85;;;;;;;3.62;70.39;95963.03;5028187;28;20049;-73
2022/04/20 04:41:15;;;;;;;23.77;13.23;;;;;;;3.63;70.20;95965.44;5026364;28;20590;-73
2022/04/20 04:43:41;;;;;;;28.85;13.60;;;;;;;3.62;70.30;95968.41;5027927;28;20050;-73
2022/04/20 04:48:53;;;;;;;23.45;13.07;;;;;;;3.61;70.54;95962.25;5042880;28;20079;-73
2022/04/20 04:51:20;;;;;;;21.83;12.77;;;;;;;3.61;70.87;95962.25;5046296;28;20079;-73
2022/04/20 04:53:46;;;;;;;24.58;13.65;;;;;;;3.59;70.65;95968.97;5046974;28;20053;-72
2022/04/20 04:56:13;;;;;;;23.17;12.50;;;;;;;3.60;70.67;95971.41;5046822;28;20048;-73
2022/04/20 04:58:39;;;;;;;27.38;13.73;;;;;;;3.59;70.83;95977.06;5046738;28;20053;-73
2022/04/20 05:01:06;;;;;;;18.35;11.38;;;;;;;3.58;70.55;95978.16;5046854;28;20064;-72
2022/04/20 05:03:32;;;;;;;21.50;13.07;;;;;;;3.61;70.51;95975.69;5046260;28;20098;-73
2022/04/20 05:06:00;;;;;;;24.92;13.35;;;;;;;3.55;70.49;95978.69;5047350;28;20052;-72
2022/04/20 05:08:27;;;;;;;24.20;13.20;;;;;;;3.57;70.54;95976.53;5045846;28;20048;-73
2022/04/20 05:10:54;;;;;;;20.80;12.98;;;;;;;3.49;70.72;95975.25;5046990;28;20052;-73
2022/04/20 05:13:20;;;;;;;19.50;11.70;;;;;;;3.50;70.65;95981.44;5045989;28;20056;-73
2022/04/20 05:15:47;;;;;;;22.98;13.35;;;;;;;3.48;70.88;95975.53;5045322;28;20057;-73
2022/04/20 05:18:13;;;;;;;21.17;12.65;;;;;;;3.48;71.17;95973.66;5036123;28;20056;-73
2022/04/20 05:20:40;;;;;;;20.23;12.77;;;;;;;3.58;71.42;95972.75;5046552;28;20049;-73
2022/04/20 05:23:09;;;;;;;22.42;12.15;;;;;;;3.63;71.06;95972.72;5046167;28;20057;-72
2022/04/20 05:25:35;;;;;;;18.40;11.07;;;;;;;3.69;71.17;95985.03;5046241;28;20041;-73
2022/04/20 05:28:02;;;;;;;19.48;11.90;;;;;;;3.76;71.28;95988.22;5046428;28;20063;-72
2022/04/20 05:30:29;;;;;;;21.58;12.07;;;;;;;3.79;71.52;95990.34;5045837;28;20139;-73
2022/04/20 05:32:55;;;;;;;22.05;12.60;;;;;;;3.73;70.69;95991.47;5046525;28;20048;-73
2022/04/20 05:35:22;;;;;;;18.48;10.85;;;;;;;3.76;70.65;95990.09;5045722;28;20052;-72
2022/04/20 05:43:14;;;;;;;22.17;11.63;;;;;;;3.78;70.33;95993.31;5045446;28;20617;-72
2022/04/20 05:45:41;;;;;;;18.17;10.95;;;;;;;3.79;70.44;95998.41;5045947;28;20053;-73
2022/04/20 05:48:08;;;;;;;22.45;11.10;;;;;;;3.83;70.34;95996.78;5024496;28;20439;-73
2022/04/20 05:50:34;;;;;;;22.45;12.00;;;;;;;3.86;70.62;95995.38;5026660;28;20052;-72
2022/04/20 05:53:01;;;;;;;22.67;11.82;;;;;;;3.89;70.29;95998.31;5025700;28;20068;-72
2022/04/20 05:55:27;;;;;;;18.92;10.88;;;;;;;3.83;70.70;95991.38;5026453;28;20094;-73
2022/04/20 05:57:55;;;;;;;19.65;10.15;;;;;;;3.89;70.48;95992.94;5025870;28;20046;-73
2022/04/20 06:00:21;;;;;;;18.25;11.10;;;;;;;4.00;70.85;95990.16;5025517;28;20056;-73
2022/04/20 06:02:48;;;;;;;19.17;11.07;;;;;;;4.14;70.81;95985.69;5026194;28;20056;-73
2022/04/20 06:05:14;;;;;;;18.40;10.88;;;;;;;4.20;70.43;95989.94;5025524;28;20049;-73
2022/04/20 06:07:41;;;;;;;17.00;10.35;;;;;;;4.31;70.03;95999.53;5026118;28;20057;-73
2022/04/20 06:10:09;;;;;;;20.92;11.90;;;;;;;4.36;69.83;95994.06;5024895;28;20523;-73
2022/04/20 06:12:36;;;;;;;23.92;10.85;;;;;;;4.40;69.45;95991.63;5026395;28;20045;-73
2022/04/20 06:15:05;;;;;;;23.88;12.40;;;;;;;4.39;69.60;95998.91;5025119;28;20057;-73
2022/04/20 06:17:32;;;;;;;20.92;11.48;;;;;;;4.43;69.70;95999.91;5025487;28;20195;-73
2022/04/20 06:19:59;;;;;;;21.58;11.43;;;;;;;4.48;69.43;96003.66;5025591;28;20091;-72
2022/04/20 06:22:25;;;;;;;21.88;11.95;;;;;;;4.55;69.54;95998.72;5025443;28;20385;-73
2022/04/20 06:24:52;;;;;;;19.05;11.77;;;;;;;4.65;69.95;96006.69;5025903;28;20052;-72
2022/04/20 06:27:18;;;;;;;19.88;12.25;;;;;;;4.79;70.15;95999.47;5024948;28;20056;-72
2022/04/20 06:29:46;;;;;;;20.30;10.95;;;;;;;4.86;68.99;95994.56;5025768;28;20494;-73
2022/04/20 06:32:13;;;;;;;20.15;11.63;;;;;;;5.02;68.50;95995.16;5024716;28;20053;-73
2022/04/20 06:34:40;;;;;;;18.02;10.82;;;;;;;5.10;67.98;95993.69;5026038;28;20049;-73
2022/04/20 06:37:06;;;;;;;19.48;10.70;;;;;;;5.14;68.02;95992.81;5024456;28;20045;-73
2022/04/20 06:39:33;;;;;;;18.25;11.38;;;;;;;5.21;68.06;96000.53;5026195;28;20049;-73
2022/04/20 06:42:01;;;;;;;17.20;10.63;;;;;;;5.24;67.70;95997.25;5024609;28;20042;-73
2022/04/20 06:44:27;;;;;;;17.83;10.63;;;;;;;5.28;67.85;95982.09;5025316;28;20785;-73
2022/04/20 06:46:54;;;;;;;16.67;10.68;;;;;;;5.34;68.03;95975.50;5029800;28;20132;-72
2022/04/20 06:49:22;;;;;;;18.75;11.18;;;;;;;5.40;68.15;95981.63;5044147;28;20057;-73
2022/04/20 07:00:02;;;;;;;22.33;13.40;;;;;;;5.82;66.60;95969.88;5046385;28;20063;-73
2022/04/20 07:02:28;;;;;;;17.05;11.13;;;;;;;5.84;65.99;95973.06;5048618;28;20064;-73
2022/04/20 07:04:56;;;;;;;18.17;10.93;;;;;;;5.93;65.99;95976.72;5048910;28;20049;-74
2022/04/20 07:07:23;;;;;;;18.35;11.15;;;;;;;6.05;65.71;95972.72;5048541;28;20052;-73
2022/04/20 07:09:49;;;;;;;16.25;10.90;;;;;;;6.15;65.16;95975.25;5048992;28;20052;-73
2022/04/20 07:12:16;;;;;;;19.92;11.07;;;;;;;6.22;64.17;95962.16;5048157;28;20052;-73
2022/04/20 07:14:42;;;;;;;17.80;11.02;;;;;;;6.24;63.56;95971.56;5048435;28;20621;-73
2022/04/20 07:17:09;;;;;;;17.73;10.18;;;;;;;6.30;63.84;95972.25;5047604;28;20110;-73
2022/04/20 07:19:35;;;;;;;18.27;11.35;;;;;;;6.42;63.94;95966.34;5049419;28;20056;-73
2022/04/20 07:22:04;;;;;;;18.55;11.20;;;;;;;6.56;63.04;95966.34;5047838;28;20041;-73
2022/04/20 07:24:31;;;;;;;17.08;10.73;;;;;;;6.73;62.39;95961.13;5048790;28;20048;-73
2022/04/20 07:26:57;;;;;;;15.18;10.15;;;;;;;6.85;61.58;95963.34;5048820;28;20069;-74
2022/04/20 07:29:26;;;;;;;16.30;10.80;;;;;;;7.01;60.34;95965.41;5048493;28;20053;-73
2022/04/20 07:31:52;;;;;;;17.10;11.13;;;;;;;7.12;60.01;95978.72;5048570;28;20058;-76
2022/04/20 07:34:19;;;;;;;16.40;10.48;;;;;;;7.47;60.37;95964.34;5047524;28;20053;-73
2022/04/20 07:36:47;;;;;;;14.05;10.18;;;;;;;8.80;59.05;95972.53;5048478;28;20549;-74
2022/04/20 07:39:15;;;;;;;12.63;9.52;;;;;;;10.07;51.81;95967.75;5047528;28;20052;-73
2022/04/20 07:41:42;;;;;;;12.15;9.30;;;;;;;11.04;49.68;95967.06;5048717;28;20049;-73
2022/04/20 07:44:09;;;;;;;13.15;9.02;;;;;;;12.18;47.61;95968.53;5047228;28;20739;-73
2022/04/20 07:46:35;;;;;;;13.40;8.73;;;;;;;12.91;43.19;95972.50;5046725;28;20041;-73
2022/04/20 07:50:18;;;;;;;12.25;8.20;;;;;;;13.54;42.48;95975.63;5047534;28;20056;-73
2022/04/20 07:51:48;;;;;;;10.18;8.27;;;;;;;14.09;42.42;95976.78;5047698;28;20103;-74
2022/04/20 07:54:16;;;;;;;9.40;7.13;;;;;;;14.78;38.57;95969.22;5047463;28;20056;-73
2022/04/20 07:56:43;;;;;;;9.57;7.53;;;;;;;15.17;38.93;95972.88;5045894;28;20049;-74
2022/04/20 07:59:09;;;;;;;8.45;6.68;;;;;;;15.80;37.23;95969.97;5045841;28;20056;-73
2022/04/20 08:01:35;;;;;;;8.90;6.38;;;;;;;16.04;33.93;95973.59;5044783;28;20098;-73
2022/04/20 08:04:02;;;;;;;8.75;6.85;;;;;;;15.78;34.65;95977.00;5047354;28;20049;-74
2022/04/20 08:06:30;;;;;;;10.43;7.03;;;;;;;15.62;33.18;95975.09;5046405;28;20057;-75
2022/04/20 08:08:57;;;;;;;10.32;6.45;;;;;;;15.73;34.08;95978.09;5047273;28;20114;-73
2022/04/20 08:11:25;;;;;;;8.77;6.38;;;;;;;15.55;33.29;95982.34;5045755;28;20057;-73
2022/04/20 08:16:35;;;;;;;7.70;5.80;;;;;;;16.08;32.64;95974.47;5046877;28;20079;-74
2022/04/20 08:19:02;;;;;;;8.40;5.82;;;;;;;16.39;33.45;95974.28;5046497;28;20053;-74
2022/04/20 08:21:29;;;;;;;6.82;5.90;;;;;;;16.95;32.73;95968.19;5048265;28;20052;-74
2022/04/20 08:23:55;;;;;;;7.80;6.07;;;;;;;17.07;30.70;95969.16;5046903;28;20049;-74
2022/04/20 08:26:22;;;;;;;9.75;7.05;;;;;;;17.17;30.69;95968.53;5047436;28;20376;-74
2022/04/20 08:28:50;;;;;;;11.25;7.38;;;;;;;17.53;31.41;95969.06;5047144;28;20049;-74
2022/04/20 08:31:16;;;;;;;10.25;7.70;;;;;;;17.53;31.90;95969.06;5046755;28;20045;-74
2022/04/20 08:33:43;;;;;;;11.95;6.78;;;;;;;17.76;30.90;95972.56;5047203;28;20511;-74
2022/04/20 08:36:11;;;;;;;8.63;6.90;;;;;;;18.13;29.53;95963.56;5047059;28;20044;-73
2022/04/20 08:38:38;;;;;;;8.50;6.50;;;;;;;18.10;29.89;95975.31;5047276;28;20133;-74
2022/04/20 08:41:06;;;;;;;11.77;6.80;;;;;;;18.54;30.69;95961.66;5046305;28;20139;-74
2022/04/20 08:43:33;;;;;;;7.78;6.32;;;;;;;19.01;28.14;95968.41;5048103;28;20048;-73
2022/04/20 08:46:01;;;;;;;9.18;7.20;;;;;;;19.24;28.66;95971.72;5046855;28;20389;-73
2022/04/20 08:48:27;;;;;;;8.90;6.53;;;;;;;19.31;28.73;95965.44;5047578;28;20052;-73
2022/04/20 08:50:54;;;;;;;9.07;6.88;;;;;;;19.54;29.71;95967.97;5046512;28;20064;-74
2022/04/20 08:53:21;;;;;;;8.70;6.75;;;;;;;19.52;28.13;95971.13;5047112;28;20057;-74
2022/04/20 08:57:15;;;;;;;8.68;6.72;;;;;;;18.89;29.25;95969.47;5046477;28;20044;-74
2022/04/20 08:58:35;;;;;;;9.38;7.47;;;;;;;18.82;30.08;95961.13;5046738;28;20057;-73
2022/04/20 09:01:04;;;;;;;8.18;6.82;;;;;;;18.94;29.10;95962.81;5046254;28;20068;-73
2022/04/20 09:03:31;;;;;;;10.10;7.22;;;;;;;18.76;30.41;95957.94;5046040;28;20466;-73
2022/04/20 09:05:58;;;;;;;10.02;7.70;;;;;;;18.48;30.26;95952.94;5046787;28;20131;-73
2022/04/20 09:08:25;;;;;;;10.05;7.40;;;;;;;18.11;30.65;95949.34;5045199;28;20041;-73
2022/04/20 09:10:53;;;;;;;10.23;7.13;;;;;;;17.64;31.43;95959.78;5047179;28;20150;-73
2022/04/20 09:13:33;;;;;;;11.98;7.97;;;;;;;17.23;32.16;95945.06;5045418;28;20059;-73
2022/04/20 09:16:06;;;;;;;9.88;8.20;;;;;;;16.70;33.63;95947.72;5046312;28;20056;-73
2022/04/20 09:18:33;;;;;;;9.15;7.65;;;;;;;16.44;34.12;95946.50;5046408;28;20048;-73
2022/04/20 09:21:06;;;;;;;13.30;7.30;;;;;;;16.42;33.00;95945.28;5045644;28;20059;-74
2022/04/20 09:23:33;;;;;;;11.00;8.15;;;;;;;15.71;34.61;95944.69;5045494;28;20051;-74
2022/04/20 09:26:08;;;;;;;10.80;7.68;;;;;;;15.61;34.30;95937.03;5045390;28;20053;-74
2022/04/20 09:28:36;;;;;;;15.35;8.48;;;;;;;15.52;33.47;95937.22;5046527;28;20530;-74
2022/04/20 09:31:04;;;;;;;14.20;8.52;;;;;;;15.32;35.43;95936.41;5045114;28;20490;-74
2022/04/20 09:33:50;;;;;;;12.13;7.60;;;;;;;15.51;34.86;95924.66;5045694;28;20167;-74
2022/04/20 09:36:43;;;;;;;9.80;7.22;;;;;;;15.57;33.03;95931.47;5044334;28;20824;-74
2022/04/20 09:39:10;;;;;;;8.50;6.22;;;;;;;15.63;31.94;95923.75;5044585;28;20080;-75
2022/04/20 09:41:55;;;;;;;11.15;7.07;;;;;;;15.56;31.53;95931.81;5046034;28;20052;-73
2022/04/20 09:44:22;;;;;;;11.75;6.80;;;;;;;15.73;32.71;95920.44;5044202;28;20056;-75
2022/04/20 09:49:52;;;;;;;9.15;6.75;;;;;;;15.98;32.34;95914.66;5045289;28;20522;-76
2022/04/20 09:52:19;;;;;;;9.32;6.68;;;;;;;16.20;31.50;95915.84;5044530;28;20098;-74
2022/04/20 09:54:53;;;;;;;9.52;5.85;;;;;;;16.23;30.19;95907.63;5045684;28;20052;-74
2022/04/20 09:57:20;;;;;;;9.68;7.03;;;;;;;16.13;30.83;95913.72;5044172;28;20057;-74
2022/04/20 09:59:58;;;;;;;9.30;7.03;;;;;;;16.17;31.85;95911.84;5045131;28;20074;-74
2022/04/20 10:02:25;;;;;;;8.48;6.07;;;;;;;16.20;32.52;95911.13;5044560;28;20084;-74
2022/04/20 10:04:53;;;;;;;10.52;6.93;;;;;;;16.38;33.08;95906.72;5042988;28;20128;-74
2022/04/20 10:07:20;;;;;;;10.27;7.05;;;;;;;16.43;31.21;95914.66;5044989;28;20424;-73
2022/04/20 10:09:46;;;;;;;9.73;6.95;;;;;;;16.39;31.65;95907.53;5044510;28;20106;-73
2022/04/20 10:12:15;;;;;;;9.13;6.13;;;;;;;16.54;30.72;95895.63;5043930;28;20060;-74
2022/04/20 10:17:32;;;;;;;8.13;5.65;;;;;;;16.77;30.87;95903.88;5044291;28;20109;-73
2022/04/20 10:20:03;;;;;;;9.95;6.07;;;;;;;16.93;30.59;95899.03;5044017;28;20052;-73
2022/04/20 10:22:31;;;;;;;8.35;5.78;;;;;;;17.08;31.63;95902.78;5043754;28;20549;-73
2022/04/20 10:25:00;;;;;;;9.05;6.30;;;;;;;16.97;30.06;95904.59;5044549;28;20049;-73
2022/04/20 10:27:34;;;;;;;12.02;6.88;;;;;;;16.95;30.62;95895.91;5043961;28;20106;-73
2022/04/20 10:30:04;;;;;;;9.20;6.88;;;;;;;17.03;29.35;95900.34;5044340;28;20197;-74
2022/04/20 10:32:43;;;;;;;8.60;6.20;;;;;;;16.99;31.55;95896.75;5044074;28;20527;-73
2022/04/20 10:35:11;;;;;;;8.02;6.25;;;;;;;17.04;31.47;95892.91;5044459;28;20055;-74
2022/04/20 10:37:40;;;;;;;9.68;6.18;;;;;;;17.04;30.20;95884.63;5044145;28;20055;-75
2022/04/20 10:40:15;;;;;;;10.43;7.30;;;;;;;17.00;30.31;95886.53;5044244;28;20049;-74
2022/04/20 10:42:41;;;;;;;13.35;6.90;;;;;;;16.93;30.37;95885.28;5044287;28;20594;-74
2022/04/20 10:45:10;;;;;;;11.50;6.78;;;;;;;16.83;29.51;95888.66;5044256;28;20049;-74
2022/04/20 10:47:40;;;;;;;11.75;6.70;;;;;;;16.77;30.18;95879.13;5045020;28;20495;-75
2022/04/20 10:50:19;;;;;;;9.70;7.13;;;;;;;16.71;28.93;95883.38;5043726;28;20053;-74
2022/04/20 10:52:52;;;;;;;7.47;5.88;;;;;;;16.68;29.27;95878.56;5045529;28;20053;-74
2022/04/20 10:55:25;;;;;;;8.77;5.93;;;;;;;16.64;29.22;95880.47;5041500;28;20720;-75
2022/04/20 10:57:55;;;;;;;9.77;6.10;;;;;;;16.43;30.50;95873.44;5025186;28;20056;-74
2022/04/20 11:00:33;;;;;;;9.15;6.78;;;;;;;16.56;29.55;95867.78;5023837;28;20045;-74
2022/04/20 11:03:04;;;;;;;10.00;6.45;;;;;;;16.63;28.46;95867.88;4985048;28;20050;-73
2022/04/20 11:05:33;;;;;;;10.00;6.50;;;;;;;16.96;29.19;95858.97;4985936;28;20050;-73
2022/04/20 11:08:05;;;;;;;9.15;6.90;;;;;;;17.00;29.93;95864.53;4984511;28;20133;-74
2022/04/20 11:10:32;;;;;;;8.77;6.13;;;;;;;16.98;30.05;95855.88;4992444;28;20050;-74
2022/04/20 11:19:10;;;;;;;10.82;7.35;;;;;;;17.55;29.18;95851.13;4993630;28;20056;-76
2022/04/20 11:21:52;;;;;;;9.45;6.05;;;;;;;17.72;30.46;95845.00;4993586;28;20053;-73
2022/04/20 11:24:27;;;;;;;11.10;6.78;;;;;;;17.67;29.29;95843.38;4985462;28;20054;-73
2022/04/20 11:26:54;;;;;;;14.70;6.75;;;;;;;17.63;29.37;95836.25;4985254;28;20743;-73
2022/04/20 11:29:22;;;;;;;16.50;7.05;;;;;;;17.71;29.54;95835.19;4985064;28;20054;-74
2022/04/20 11:31:51;;;;;;;8.88;6.35;;;;;;;17.85;29.55;95832.59;4985285;28;20061;-76
2022/04/20 11:34:20;;;;;;;9.90;6.93;;;;;;;17.76;28.40;95834.09;4984603;28;20054;-74
2022/04/20 11:36:51;;;;;;;8.75;6.10;;;;;;;17.72;28.24;95834.00;4985890;28;20066;-73
2022/04/20 11:39:20;;;;;;;8.57;6.65;;;;;;;17.61;27.13;95838.59;4984524;28;20065;-75
2022/04/20 11:41:47;;;;;;;8.52;6.20;;;;;;;17.32;28.20;95830.00;4985599;28;20524;-75
2022/04/20 11:44:21;;;;;;;8.27;5.88;;;;;;;17.27;29.06;95819.31;4984302;28;20062;-75
2022/04/20 11:46:48;;;;;;;9.20;6.25;;;;;;;17.11;29.20;95829.72;4987978;28;20046;-76
2022/04/20 11:49:15;;;;;;;8.70;6.60;;;;;;;17.04;29.29;95821.38;4988284;28;20133;-75
2022/04/20 11:51:46;;;;;;;8.82;6.95;;;;;;;17.15;28.99;95811.31;4988585;28;20054;-75
2022/04/20 11:54:20;;;;;;;11.43;6.90;;;;;;;17.31;29.26;95808.34;4988703;28;20081;-76
2022/04/20 11:56:48;;;;;;;10.20;7.00;;;;;;;17.20;29.58;95808.22;4988808;28;20054;-75
2022/04/20 11:59:17;;;;;;;7.35;5.63;;;;;;;17.29;30.08;95805.19;4989158;28;20135;-75
2022/04/20 12:01:44;;;;;;;10.95;6.25;;;;;;;17.44;28.49;95807.75;5007594;28;20068;-75
2022/04/20 12:04:12;;;;;;;9.00;6.60;;;;;;;17.63;29.11;95812.25;5027577;28;20103;-76